Time;durP1;ratioP1;P1;durP2;ratioP2;P2;SDS_P1;SDS_P2;PMS_P1;PMS_P2;Temp;Humidity;BMP_temperature;BMP_pressure;BME280_temperature;BME280_humidity;BME280_pressure;Samples;Min_cycle;Max_cycle;Signal;HPM_P1;HPM_P2
2021/12/20 00:01:42;;;;;;;11.93;2.10;;;0.20;99.90;;;;;;5092140;28;20467;-87
2021/12/20 00:04:08;;;;;;;10.03;2.93;;;0.20;99.90;;;;;;5092436;28;20551;-86
2021/12/20 00:06:34;;;;;;;5.80;3.13;;;0.30;99.90;;;;;;5092371;28;20508;-86
2021/12/20 00:08:59;;;;;;;6.63;1.40;;;0.30;99.90;;;;;;5093622;28;20682;-86
2021/12/20 00:11:25;;;;;;;8.90;1.20;;;0.20;99.90;;;;;;5092281;28;20419;-86
2021/12/20 00:13:51;;;;;;;8.70;1.83;;;0.20;99.90;;;;;;5093581;28;20174;-89
2021/12/20 00:16:16;;;;;;;6.70;2.10;;;0.20;99.90;;;;;;5092243;28;20229;-86
2021/12/20 00:18:43;;;;;;;5.87;2.10;;;0.20;99.90;;;;;;5091787;28;20222;-86
2021/12/20 00:21:10;;;;;;;7.17;2.00;;;0.20;99.90;;;;;;5092155;28;20169;-87
2021/12/20 00:23:36;;;;;;;11.47;3.00;;;0.20;99.90;;;;;;5092182;28;20429;-86
2021/12/20 00:26:02;;;;;;;8.50;2.20;;;0.30;99.90;;;;;;5093164;28;20926;-88
2021/12/20 00:28:28;;;;;;;4.70;1.47;;;0.20;99.90;;;;;;5093150;28;20429;-87
2021/12/20 00:30:55;;;;;;;6.20;1.80;;;0.30;99.90;;;;;;5091981;28;20410;-86
2021/12/20 00:33:20;;;;;;;5.47;1.50;;;0.30;99.90;;;;;;5093057;28;20170;-87
2021/12/20 00:35:47;;;;;;;11.70;2.47;;;0.20;99.90;;;;;;5093297;28;20981;-87
2021/12/20 00:40:58;;;;;;;5.83;1.03;;;0.20;99.90;;;;;;5093442;28;20441;-90
2021/12/20 00:43:23;;;;;;;3.43;1.50;;;0.20;99.90;;;;;;5092854;28;20905;-87
2021/12/20 00:45:49;;;;;;;7.60;2.90;;;0.20;99.90;;;;;;5091744;28;20174;-87
2021/12/20 00:48:15;;;;;;;6.17;1.77;;;0.10;99.90;;;;;;5091583;28;20198;-89
2021/12/20 00:50:42;;;;;;;2.90;1.60;;;0.10;99.90;;;;;;5093232;28;20168;-87
2021/12/20 00:53:09;;;;;;;7.00;1.93;;;0.10;99.90;;;;;;5092589;28;20425;-87
2021/12/20 00:55:34;;;;;;;5.47;1.63;;;0.00;99.90;;;;;;5093402;28;20415;-87
2021/12/20 00:58:01;;;;;;;9.97;1.20;;;0.00;99.90;;;;;;5092070;28;20534;-91
2021/12/20 01:00:43;;;;;;;4.67;1.80;;;0.00;99.90;;;;;;5093700;28;20266;-90
2021/12/20 01:03:10;;;;;;;6.37;1.97;;;0.00;99.90;;;;;;5091998;28;20463;-89
2021/12/20 01:05:38;;;;;;;3.23;1.40;;;-0.10;99.90;;;;;;5092159;28;20429;-90
2021/12/20 01:08:05;;;;;;;5.50;1.43;;;-0.10;99.90;;;;;;5092087;28;20418;-88
2021/12/20 01:10:32;;;;;;;4.80;0.97;;;-0.10;99.90;;;;;;5096025;28;20436;-89
2021/12/20 01:13:00;;;;;;;3.93;1.30;;;-0.10;99.90;;;;;;5096267;28;20418;-89
2021/12/20 01:15:31;;;;;;;5.43;1.53;;;0.00;99.90;;;;;;5095579;28;20597;-87
2021/12/20 01:17:57;;;;;;;6.10;1.30;;;0.10;99.90;;;;;;5096435;28;20480;-88
2021/12/20 01:20:23;;;;;;;2.43;1.43;;;0.00;99.90;;;;;;5095474;28;20425;-88
2021/12/20 01:22:50;;;;;;;5.47;1.40;;;0.00;99.90;;;;;;5095584;28;20175;-91
2021/12/20 01:25:17;;;;;;;2.40;1.07;;;-0.10;99.90;;;;;;5095589;28;20199;-87
2021/12/20 01:27:43;;;;;;;4.30;1.67;;;-0.10;99.90;;;;;;5097880;28;20422;-88
2021/12/20 01:30:11;;;;;;;4.73;1.73;;;-0.10;99.90;;;;;;5098193;28;20416;-87
2021/12/20 01:32:36;;;;;;;7.73;2.07;;;-0.10;99.90;;;;;;5096168;28;20801;-87
2021/12/20 01:35:03;;;;;;;4.87;1.60;;;-0.10;99.90;;;;;;5095085;28;20440;-88
2021/12/20 01:37:29;;;;;;;2.53;1.73;;;0.00;99.90;;;;;;5096059;28;20235;-89
2021/12/20 01:39:58;;;;;;;2.43;1.03;;;0.00;99.90;;;;;;5095318;28;21019;-87
2021/12/20 01:42:24;;;;;;;5.97;1.10;;;0.00;99.90;;;;;;5098658;28;20316;-90
2021/12/20 01:44:55;;;;;;;5.47;1.20;;;-0.10;99.90;;;;;;5115269;28;20455;-87
2021/12/20 01:47:21;;;;;;;4.30;0.87;;;-0.10;99.90;;;;;;5100974;28;20441;-86
2021/12/20 01:50:51;;;;;;;4.13;1.50;;;-0.20;99.90;;;;;;5094536;28;20414;-86
2021/12/20 01:52:44;;;;;;;3.33;0.97;;;-0.20;99.90;;;;;;5095214;28;20175;-90
2021/12/20 01:55:19;;;;;;;2.40;1.30;;;-0.20;99.90;;;;;;5094978;28;20413;-88
2021/12/20 01:57:45;;;;;;;5.93;1.43;;;-0.30;99.90;;;;;;5094643;28;20515;-86
2021/12/20 02:00:15;;;;;;;3.03;1.53;;;-0.30;99.90;;;;;;5094683;28;20413;-87
2021/12/20 02:02:43;;;;;;;2.70;1.30;;;-0.30;99.90;;;;;;5095452;28;20441;-90
2021/12/20 02:05:18;;;;;;;6.00;1.60;;;-0.30;99.90;;;;;;5095040;28;20414;-89
2021/12/20 02:10:14;;;;;;;4.47;1.17;;;-0.20;99.90;;;;;;5091034;28;20927;-88
2021/12/20 02:12:40;;;;;;;6.67;1.37;;;-0.30;99.90;;;;;;5076594;28;20414;-89
2021/12/20 02:15:06;;;;;;;4.17;1.20;;;-0.20;99.90;;;;;;5075037;28;20799;-88
2021/12/20 02:17:32;;;;;;;2.10;1.17;;;-0.20;99.90;;;;;;5074281;28;20208;-89
2021/12/20 02:20:02;;;;;;;4.23;1.60;;;-0.30;99.90;;;;;;5074546;28;20456;-88
2021/12/20 02:22:28;;;;;;;3.03;0.90;;;-0.30;99.90;;;;;;5083817;28;20254;-91
2021/12/20 02:24:53;;;;;;;5.10;1.93;;;-0.30;99.90;;;;;;5085263;28;20436;-91
2021/12/20 02:27:20;;;;;;;8.23;0.90;;;-0.30;99.90;;;;;;5083339;28;20175;-92
2021/12/20 02:30:01;;;;;;;4.53;1.40;;;-0.40;99.90;;;;;;5077142;28;20166;-93
2021/12/20 02:37:56;;;;;;;5.40;1.60;;;-0.40;99.90;;;;;;5076086;28;20887;-90
2021/12/20 02:40:22;;;;;;;4.43;3.60;;;-0.40;99.90;;;;;;5074971;28;20475;-90
2021/12/20 02:42:51;;;;;;;3.33;1.50;;;-0.40;99.90;;;;;;5074967;28;20426;-92
2021/12/20 02:45:17;;;;;;;5.07;1.50;;;-0.40;99.90;;;;;;5076061;28;20767;-91
2021/12/20 02:47:45;;;;;;;2.60;1.27;;;-0.50;99.90;;;;;;5075646;28;20536;-90
2021/12/20 02:50:13;;;;;;;5.27;1.70;;;-0.50;99.90;;;;;;5076033;28;20913;-90
2021/12/20 02:52:40;;;;;;;2.30;1.13;;;-0.50;99.90;;;;;;5074329;28;20497;-91
2021/12/20 02:55:07;;;;;;;6.40;1.20;;;-0.50;99.90;;;;;;5074551;28;20433;-91
2021/12/20 02:57:37;;;;;;;4.50;0.73;;;-0.50;99.90;;;;;;5084081;28;20477;-90
2021/12/20 03:00:06;;;;;;;10.53;1.60;;;-0.60;99.90;;;;;;5091938;28;20506;-90
2021/12/20 03:02:31;;;;;;;7.43;1.60;;;-0.60;99.90;;;;;;5093408;28;20429;-90
2021/12/20 03:04:57;;;;;;;5.90;1.03;;;-0.50;99.90;;;;;;5094279;28;20452;-87
2021/12/20 03:07:26;;;;;;;4.70;1.33;;;-0.50;99.90;;;;;;5094195;28;20179;-89
2021/12/20 03:09:59;;;;;;;3.53;1.47;;;-0.50;99.90;;;;;;5093072;28;20172;-90
2021/12/20 03:12:28;;;;;;;4.63;1.17;;;-0.50;99.90;;;;;;5087605;28;20413;-89
2021/12/20 03:15:00;;;;;;;2.50;2.07;;;-0.60;99.90;;;;;;5094060;28;20511;-89
2021/12/20 03:17:26;;;;;;;4.70;1.30;;;-0.60;99.90;;;;;;5087250;28;20465;-89
2021/12/20 03:19:51;;;;;;;6.07;1.03;;;-0.60;99.90;;;;;;5092392;28;20979;-89
2021/12/20 03:22:17;;;;;;;5.17;1.53;;;-0.60;99.90;;;;;;5093680;28;20239;-89
2021/12/20 03:24:43;;;;;;;4.80;1.90;;;-0.70;99.90;;;;;;5093626;28;20243;-89
2021/12/20 03:27:08;;;;;;;4.30;1.57;;;-0.60;99.90;;;;;;5093446;28;20171;-88
2021/12/20 03:29:34;;;;;;;1.10;0.70;;;-0.60;99.90;;;;;;5093093;28;20174;-87
2021/12/20 03:32:00;;;;;;;4.03;1.00;;;-0.60;99.90;;;;;;5090817;28;20573;-85
2021/12/20 03:34:26;;;;;;;6.60;1.90;;;-0.60;99.90;;;;;;5092997;28;20184;-86
2021/12/20 03:36:51;;;;;;;5.43;2.03;;;-0.70;99.90;;;;;;5092903;28;20269;-86
2021/12/20 03:39:17;;;;;;;2.60;1.20;;;-0.70;99.90;;;;;;5091757;28;20220;-87
2021/12/20 03:41:43;;;;;;;3.83;1.40;;;-0.70;99.90;;;;;;5092003;28;20236;-88
2021/12/20 03:44:08;;;;;;;7.43;2.20;;;-0.70;99.90;;;;;;5093216;28;20985;-88
2021/12/20 03:46:35;;;;;;;2.97;1.00;;;-0.70;99.90;;;;;;5092092;28;20170;-89
2021/12/20 03:49:01;;;;;;;5.40;2.43;;;-0.70;99.90;;;;;;5093136;28;20190;-89
2021/12/20 03:51:27;;;;;;;1.63;0.93;;;-0.70;99.90;;;;;;5092924;28;20413;-88
2021/12/20 03:53:53;;;;;;;3.50;1.10;;;-0.80;99.90;;;;;;5092799;28;20421;-89
2021/12/20 03:56:18;;;;;;;2.50;1.20;;;-0.80;99.90;;;;;;5092723;28;20166;-89
2021/12/20 03:58:44;;;;;;;6.60;1.80;;;-0.80;99.90;;;;;;5092662;28;20213;-88
2021/12/20 04:01:12;;;;;;;1.10;0.80;;;-0.80;99.90;;;;;;5092210;28;20165;-89
2021/12/20 04:03:39;;;;;;;4.10;1.30;;;-0.60;99.90;;;;;;5092486;28;20174;-89
2021/12/20 04:06:08;;;;;;;2.43;1.33;;;-0.90;99.90;;;;;;5093872;28;20734;-89
2021/12/20 04:08:34;;;;;;;4.07;1.70;;;-0.80;99.90;;;;;;5093994;28;20422;-89
2021/12/20 04:11:00;;;;;;;7.10;2.30;;;-0.80;99.90;;;;;;5093885;28;20421;-89
2021/12/20 04:13:26;;;;;;;3.93;1.63;;;-0.90;99.90;;;;;;5092971;28;20421;-89
2021/12/20 04:15:53;;;;;;;2.30;1.33;;;-0.80;99.90;;;;;;5092098;28;20416;-87
2021/12/20 04:18:19;;;;;;;2.10;1.67;;;-0.90;99.90;;;;;;5091876;28;20476;-88
2021/12/20 04:20:45;;;;;;;1.80;1.20;;;-0.90;99.90;;;;;;5093545;28;20399;-87
2021/12/20 04:23:11;;;;;;;5.57;1.30;;;-0.90;99.90;;;;;;5091777;28;20415;-88
2021/12/20 04:25:37;;;;;;;5.67;1.67;;;-0.90;99.90;;;;;;5093731;28;20427;-88
2021/12/20 04:28:02;;;;;;;4.13;1.83;;;-1.00;99.90;;;;;;5093246;28;20423;-88
2021/12/20 04:30:30;;;;;;;2.90;1.30;;;-0.90;99.90;;;;;;5092121;28;20217;-88
2021/12/20 04:32:56;;;;;;;4.30;1.50;;;-1.00;99.90;;;;;;5093121;28;20170;-88
2021/12/20 04:35:22;;;;;;;5.17;1.63;;;-0.90;99.90;;;;;;5093286;28;20486;-89
2021/12/20 04:37:49;;;;;;;4.97;1.60;;;-1.00;99.90;;;;;;5092002;28;20629;-88
2021/12/20 04:40:20;;;;;;;2.70;1.10;;;-1.10;99.90;;;;;;5093522;28;20175;-90
2021/12/20 04:42:52;;;;;;;2.63;1.00;;;-1.00;99.90;;;;;;5093921;28;20978;-89
2021/12/20 04:45:17;;;;;;;3.43;1.90;;;-1.10;99.90;;;;;;5096296;28;20908;-89
2021/12/20 04:47:43;;;;;;;5.93;1.97;;;-1.10;99.90;;;;;;5095828;28;20424;-88
2021/12/20 04:50:09;;;;;;;4.10;1.57;;;-1.10;99.90;;;;;;5096484;28;20226;-89
2021/12/20 04:52:35;;;;;;;4.63;1.83;;;-1.10;99.90;;;;;;5096256;28;20165;-88
2021/12/20 04:55:01;;;;;;;1.47;1.30;;;-1.10;99.90;;;;;;5096551;28;20944;-90
2021/12/20 04:57:27;;;;;;;4.57;2.43;;;-1.00;99.90;;;;;;5096535;28;20451;-90
2021/12/20 04:59:57;;;;;;;2.73;1.30;;;-1.00;99.90;;;;;;5096811;28;20179;-90
2021/12/20 05:02:22;;;;;;;3.37;1.30;;;-1.00;99.90;;;;;;5097004;28;20638;-90
2021/12/20 05:04:48;;;;;;;5.43;1.20;;;-1.00;99.90;;;;;;5097062;28;20420;-90
2021/12/20 05:07:14;;;;;;;4.30;1.67;;;-1.00;99.90;;;;;;5097331;28;20244;-90
2021/12/20 05:09:40;;;;;;;4.20;1.13;;;-1.10;99.90;;;;;;5096670;28;20274;-90
2021/12/20 05:12:12;;;;;;;6.73;1.63;;;-1.10;99.90;;;;;;5096641;28;20544;-90
2021/12/20 05:14:40;;;;;;;7.07;1.67;;;-1.00;99.90;;;;;;5097644;28;20416;-90
2021/12/20 05:17:06;;;;;;;4.33;1.03;;;-1.00;99.90;;;;;;5096357;28;20882;-90
2021/12/20 05:19:32;;;;;;;5.33;1.47;;;-1.10;99.90;;;;;;5097639;28;20414;-90
2021/12/20 05:21:58;;;;;;;2.97;1.33;;;-1.10;99.90;;;;;;5097770;28;20519;-90
2021/12/20 05:24:24;;;;;;;1.43;1.00;;;-1.10;99.90;;;;;;5098702;28;20890;-90
2021/12/20 05:26:49;;;;;;;3.03;1.40;;;-1.10;99.90;;;;;;5109579;28;20168;-89
2021/12/20 05:29:15;;;;;;;3.30;1.57;;;-1.00;99.90;;;;;;5109337;28;20179;-90
2021/12/20 05:31:41;;;;;;;4.03;1.80;;;-1.10;99.90;;;;;;5108970;28;20626;-90
2021/12/20 05:34:06;;;;;;;2.67;1.30;;;-1.10;99.90;;;;;;5107909;28;20840;-90
2021/12/20 05:36:32;;;;;;;1.63;0.97;;;-1.10;99.90;;;;;;5099581;28;20639;-90
2021/12/20 05:38:58;;;;;;;5.33;1.40;;;-1.10;99.90;;;;;;5096041;28;20235;-91
2021/12/20 05:41:23;;;;;;;1.77;1.67;;;-1.10;99.90;;;;;;5096786;28;20217;-88
2021/12/20 05:43:49;;;;;;;7.07;1.77;;;-1.10;99.90;;;;;;5096115;28;20184;-89
2021/12/20 05:46:15;;;;;;;3.23;1.30;;;-1.10;99.90;;;;;;5095884;28;20172;-89
2021/12/20 05:48:40;;;;;;;3.47;0.97;;;-1.10;99.90;;;;;;5095708;28;20187;-90
2021/12/20 05:51:06;;;;;;;4.27;1.30;;;-1.10;99.90;;;;;;5112635;28;20843;-90
2021/12/20 05:53:32;;;;;;;1.60;1.10;;;-1.10;99.90;;;;;;5115806;28;20631;-89
2021/12/20 05:55:57;;;;;;;4.00;1.07;;;-1.20;99.90;;;;;;5115759;28;20177;-89
2021/12/20 05:58:23;;;;;;;2.63;0.70;;;-1.20;99.90;;;;;;5116086;28;20214;-89
2021/12/20 06:00:50;;;;;;;2.47;0.93;;;-1.20;99.90;;;;;;5115611;28;20181;-89
2021/12/20 06:03:15;;;;;;;1.23;0.70;;;-1.20;99.90;;;;;;5117394;28;20170;-90
2021/12/20 06:05:42;;;;;;;3.27;0.90;;;-1.20;99.90;;;;;;5115724;28;20915;-89
2021/12/20 06:08:11;;;;;;;6.57;2.10;;;-1.20;99.90;;;;;;5116896;28;20253;-90
2021/12/20 06:10:37;;;;;;;2.30;2.10;;;-1.20;99.90;;;;;;5115644;28;20424;-90
2021/12/20 06:13:04;;;;;;;3.83;0.73;;;-1.20;99.90;;;;;;5115815;28;20433;-90
2021/12/20 06:15:30;;;;;;;2.13;1.10;;;-1.20;99.90;;;;;;5115744;28;20421;-90
2021/12/20 06:17:55;;;;;;;3.87;0.97;;;-1.20;99.90;;;;;;5115544;28;20561;-89
2021/12/20 06:20:21;;;;;;;2.80;1.30;;;-1.20;99.90;;;;;;5116720;28;20527;-90
2021/12/20 06:22:47;;;;;;;3.03;1.40;;;-1.20;99.90;;;;;;5114831;28;20176;-90
2021/12/20 06:25:13;;;;;;;1.90;1.33;;;-1.20;99.90;;;;;;5115963;28;20175;-90
2021/12/20 06:27:39;;;;;;;6.30;1.43;;;-1.20;99.90;;;;;;5115367;28;20205;-89
2021/12/20 06:30:08;;;;;;;3.07;1.83;;;-1.20;99.90;;;;;;5115401;28;21019;-89
2021/12/20 06:32:35;;;;;;;3.20;0.90;;;-1.10;99.90;;;;;;5116844;28;20420;-90
2021/12/20 06:35:01;;;;;;;2.90;1.67;;;-1.20;99.90;;;;;;5115685;28;20445;-89
2021/12/20 06:37:26;;;;;;;4.37;1.27;;;-1.20;99.90;;;;;;5116709;28;20463;-90
2021/12/20 06:39:52;;;;;;;3.50;1.80;;;-1.20;99.90;;;;;;5116270;28;20673;-89
2021/12/20 06:42:18;;;;;;;1.40;0.53;;;-1.10;99.90;;;;;;5116067;28;20273;-89
2021/12/20 06:44:43;;;;;;;4.70;1.37;;;-1.20;99.90;;;;;;5114242;28;20539;-89
2021/12/20 06:47:09;;;;;;;4.03;1.40;;;-1.20;99.90;;;;;;5113094;28;20203;-88
2021/12/20 06:49:35;;;;;;;2.43;0.90;;;-1.20;99.90;;;;;;5114160;28;20185;-88
2021/12/20 06:52:02;;;;;;;3.07;0.93;;;-1.20;99.90;;;;;;5114348;28;20274;-88
2021/12/20 06:54:28;;;;;;;4.30;0.90;;;-1.20;99.90;;;;;;5115220;28;20180;-88
2021/12/20 06:56:54;;;;;;;4.23;1.17;;;-1.20;99.90;;;;;;5114441;28;20568;-88
2021/12/20 06:59:19;;;;;;;1.37;0.63;;;-1.20;99.90;;;;;;5115627;28;20651;-88
2021/12/20 07:01:45;;;;;;;2.47;1.53;;;-1.20;99.90;;;;;;5113974;28;20193;-88
2021/12/20 07:04:12;;;;;;;5.77;2.00;;;-1.20;99.90;;;;;;5115654;28;20174;-88
2021/12/20 07:06:38;;;;;;;2.47;1.27;;;-1.20;99.90;;;;;;5113156;28;20167;-89
2021/12/20 07:09:04;;;;;;;2.43;1.57;;;-1.20;99.90;;;;;;5115519;28;20462;-88
2021/12/20 07:11:30;;;;;;;4.13;1.00;;;-1.20;99.90;;;;;;5114241;28;20978;-88
2021/12/20 07:13:56;;;;;;;1.93;1.30;;;-1.30;99.90;;;;;;5114217;28;20437;-88
2021/12/20 07:16:22;;;;;;;2.93;0.80;;;-1.40;99.90;;;;;;5113953;28;20499;-88
2021/12/20 07:18:48;;;;;;;2.97;1.10;;;-1.50;99.90;;;;;;5113803;28;20466;-88
2021/12/20 07:21:14;;;;;;;5.33;1.57;;;-1.40;99.90;;;;;;5114007;28;20409;-88
2021/12/20 07:23:40;;;;;;;2.57;1.03;;;-1.50;99.90;;;;;;5113813;28;20424;-88
2021/12/20 07:26:09;;;;;;;5.00;2.53;;;-1.40;99.90;;;;;;5114499;28;20416;-89
2021/12/20 07:28:35;;;;;;;6.70;1.60;;;-1.40;99.90;;;;;;5115773;28;20161;-88
2021/12/20 07:31:00;;;;;;;2.53;0.90;;;-1.40;99.90;;;;;;5115115;28;20404;-89
2021/12/20 07:33:27;;;;;;;2.10;0.90;;;-1.40;99.90;;;;;;5115100;28;20164;-89
2021/12/20 07:35:53;;;;;;;2.27;1.73;;;-1.40;99.90;;;;;;5115031;28;20160;-88
2021/12/20 07:38:19;;;;;;;2.70;0.97;;;-1.40;99.90;;;;;;5113230;28;20554;-88
2021/12/20 07:40:47;;;;;;;2.40;1.63;;;-1.30;99.90;;;;;;5131489;27;20198;-89
2021/12/20 07:43:14;;;;;;;3.00;1.07;;;-1.30;99.90;;;;;;5114910;28;20767;-90
2021/12/20 07:45:42;;;;;;;2.00;0.80;;;-1.30;99.90;;;;;;5109782;28;20413;-89
2021/12/20 07:48:08;;;;;;;4.90;1.20;;;-1.20;99.90;;;;;;5094115;28;20514;-89
2021/12/20 07:50:33;;;;;;;3.80;1.30;;;-1.20;99.90;;;;;;5095391;28;20490;-90
2021/12/20 07:52:59;;;;;;;5.13;1.90;;;-1.10;99.90;;;;;;5099575;28;20427;-90
2021/12/20 07:55:25;;;;;;;9.57;2.17;;;-1.10;99.90;;;;;;5099367;28;20242;-91
2021/12/20 07:57:51;;;;;;;5.00;1.57;;;-1.10;99.90;;;;;;5095058;28;20482;-90
2021/12/20 08:00:17;;;;;;;3.93;1.10;;;-1.10;99.90;;;;;;5093889;28;20580;-89
2021/12/20 08:02:44;;;;;;;4.00;1.07;;;-1.00;99.90;;;;;;5094080;28;20220;-90
2021/12/20 08:05:11;;;;;;;5.00;2.23;;;-0.90;99.90;;;;;;5094977;28;20421;-91
2021/12/20 08:07:37;;;;;;;3.87;1.30;;;-0.80;99.90;;;;;;5093896;28;20404;-87
2021/12/20 08:10:04;;;;;;;1.73;0.60;;;-0.90;99.90;;;;;;5093218;28;20436;-89
2021/12/20 08:12:29;;;;;;;5.00;2.03;;;-0.90;99.90;;;;;;5098505;28;20408;-91
2021/12/20 08:14:55;;;;;;;5.10;1.07;;;-0.90;99.90;;;;;;5099902;28;20429;-88
2021/12/20 08:17:20;;;;;;;1.57;1.47;;;-0.80;99.90;;;;;;5096925;28;20208;-91
2021/12/20 08:19:46;;;;;;;7.60;1.80;;;-0.90;99.90;;;;;;5106708;28;20299;-88
2021/12/20 08:22:12;;;;;;;3.00;1.40;;;-0.80;99.90;;;;;;5136245;28;20193;-93
2021/12/20 08:24:38;;;;;;;2.20;1.10;;;-0.70;99.90;;;;;;5135035;28;20176;-94
2021/12/20 08:27:04;;;;;;;3.10;0.90;;;-0.70;99.90;;;;;;5135024;28;20912;-93
2021/12/20 08:29:29;;;;;;;5.30;1.57;;;-0.70;99.90;;;;;;5129577;28;20197;-90
2021/12/20 08:31:56;;;;;;;5.70;1.83;;;-0.50;99.90;;;;;;5132439;28;20171;-88
2021/12/20 08:34:21;;;;;;;4.30;1.60;;;-0.50;99.90;;;;;;5133548;28;20190;-90
2021/12/20 08:36:47;;;;;;;3.70;1.67;;;-0.50;99.90;;;;;;5137354;28;20417;-92
2021/12/20 08:39:17;;;;;;;3.90;2.17;;;-0.40;99.90;;;;;;5138789;28;20216;-91
2021/12/20 08:41:44;;;;;;;3.00;1.50;;;-0.30;99.90;;;;;;5136431;28;20203;-87
2021/12/20 08:44:10;;;;;;;3.40;1.17;;;-0.20;99.90;;;;;;5138419;28;20444;-87
2021/12/20 08:46:35;;;;;;;2.07;1.03;;;-0.10;99.90;;;;;;5137656;28;20175;-88
2021/12/20 08:49:01;;;;;;;5.17;1.10;;;0.10;99.90;;;;;;5130974;28;20200;-88
2021/12/20 08:51:27;;;;;;;4.03;1.23;;;0.20;99.90;;;;;;5121234;28;20217;-88
2021/12/20 08:53:53;;;;;;;4.00;1.23;;;0.20;99.90;;;;;;5120121;28;20159;-89
2021/12/20 08:56:19;;;;;;;13.30;2.13;;;0.30;99.90;;;;;;5119658;28;20611;-89
2021/12/20 08:58:45;;;;;;;1.87;0.70;;;0.40;99.90;;;;;;5119316;28;20218;-89
2021/12/20 09:01:11;;;;;;;3.53;1.47;;;0.40;99.90;;;;;;5120225;28;20443;-88
2021/12/20 09:03:36;;;;;;;2.70;1.03;;;0.40;99.90;;;;;;5118803;28;20451;-88
2021/12/20 09:06:02;;;;;;;5.30;1.20;;;0.40;99.90;;;;;;5099510;28;20202;-89
2021/12/20 09:08:30;;;;;;;3.97;1.30;;;0.50;99.90;;;;;;5092999;28;20533;-90
2021/12/20 09:10:56;;;;;;;2.37;0.97;;;0.50;99.90;;;;;;5093878;28;20440;-89
2021/12/20 09:13:21;;;;;;;2.83;0.87;;;0.60;99.90;;;;;;5094105;28;20426;-89
2021/12/20 09:15:47;;;;;;;2.00;1.40;;;0.70;99.90;;;;;;5094625;28;20176;-89
2021/12/20 09:18:13;;;;;;;8.07;1.70;;;0.70;99.90;;;;;;5094688;28;20240;-89
2021/12/20 09:20:39;;;;;;;4.07;1.20;;;0.80;99.90;;;;;;5093802;28;20170;-89
2021/12/20 09:23:06;;;;;;;1.20;1.10;;;0.80;99.90;;;;;;5099694;28;20326;-89
2021/12/20 09:25:34;;;;;;;5.33;1.00;;;;;;;;;;5093535;28;20908;-89
2021/12/20 09:28:02;;;;;;;2.27;1.23;;;1.00;99.90;;;;;;5093330;28;20411;-89
2021/12/20 09:30:31;;;;;;;3.07;1.40;;;1.10;99.90;;;;;;5095307;28;20410;-89
2021/12/20 09:32:56;;;;;;;5.33;1.87;;;1.10;99.90;;;;;;5096932;28;20514;-89
2021/12/20 09:35:22;;;;;;;3.53;1.33;;;1.20;99.90;;;;;;5094721;28;20513;-88
2021/12/20 09:37:51;;;;;;;1.43;0.83;;;1.40;99.90;;;;;;5090097;28;20204;-88
2021/12/20 09:40:20;;;;;;;5.07;1.63;;;1.40;99.90;;;;;;5095089;28;20421;-88
2021/12/20 09:42:52;;;;;;;4.70;0.70;;;1.40;99.90;;;;;;5115709;28;20413;-89
2021/12/20 09:45:20;;;;;;;3.77;1.40;;;1.40;99.90;;;;;;5116741;28;20477;-89
2021/12/20 09:47:46;;;;;;;8.13;1.30;;;1.50;99.90;;;;;;5116023;28;20446;-88
2021/12/20 09:50:12;;;;;;;6.00;0.77;;;1.50;99.90;;;;;;5116006;28;20428;-89
2021/12/20 09:52:39;;;;;;;6.73;1.00;;;1.60;99.90;;;;;;5115537;28;20417;-89
2021/12/20 09:55:05;;;;;;;2.73;1.20;;;1.70;99.90;;;;;;5117140;27;20168;-89
2021/12/20 09:57:32;;;;;;;2.87;1.40;;;1.80;99.90;;;;;;5116791;28;20453;-88
2021/12/20 10:00:01;;;;;;;4.13;0.73;;;1.80;99.90;;;;;;5116420;28;20909;-88
2021/12/20 10:02:26;;;;;;;4.37;1.33;;;1.80;99.90;;;;;;5132342;27;20426;-86
2021/12/20 10:04:54;;;;;;;2.03;1.40;;;1.90;99.90;;;;;;5116423;28;21016;-85
2021/12/20 10:07:24;;;;;;;1.70;1.13;;;1.90;99.90;;;;;;5114961;28;20183;-86
2021/12/20 10:09:50;;;;;;;8.33;1.60;;;1.90;99.90;;;;;;5115331;28;20433;-87
2021/12/20 10:12:22;;;;;;;2.97;1.00;;;2.80;99.90;;;;;;5116376;28;20889;-86
2021/12/20 10:14:51;;;;;;;5.80;1.03;;;2.40;99.90;;;;;;5115879;28;20881;-86
2021/12/20 10:17:17;;;;;;;5.63;1.20;;;2.30;99.90;;;;;;5114913;28;20460;-87
2021/12/20 10:19:42;;;;;;;2.63;1.10;;;2.30;99.90;;;;;;5115031;28;20952;-86
2021/12/20 10:22:22;;;;;;;3.80;1.17;;;2.60;99.90;;;;;;5116165;28;20248;-86
2021/12/20 10:24:48;;;;;;;1.83;1.27;;;2.40;99.90;;;;;;5122602;27;20184;-83
2021/12/20 10:27:32;;;;;;;4.87;1.60;;;2.40;99.90;;;;;;5094164;28;20956;-86
2021/12/20 10:30:00;;;;;;;3.57;1.27;;;2.50;99.90;;;;;;5094906;28;20169;-82
2021/12/20 10:32:40;;;;;;;10.60;2.77;;;2.50;99.90;;;;;;5095362;28;20398;-86
2021/12/20 10:35:25;;;;;;;4.63;1.70;;;2.70;99.90;;;;;;5095253;28;20406;-86
2021/12/20 10:37:53;;;;;;;7.50;2.33;;;2.80;99.90;;;;;;5094782;28;20466;-86
2021/12/20 10:40:19;;;;;;;2.83;1.90;;;3.10;99.90;;;;;;5094874;28;20914;-84
2021/12/20 10:42:45;;;;;;;3.33;1.03;;;4.00;99.90;;;;;;5093565;28;20418;-83
2021/12/20 10:45:15;;;;;;;6.60;1.27;;;5.20;99.90;;;;;;5094550;28;20210;-84
2021/12/20 10:47:42;;;;;;;4.10;1.00;;;5.90;99.90;;;;;;5093546;28;20502;-86
2021/12/20 10:50:22;;;;;;;8.50;1.93;;;6.30;99.90;;;;;;5095054;28;20466;-85
2021/12/20 10:52:48;;;;;;;6.47;1.03;;;6.10;99.90;;;;;;5094690;28;20417;-83
2021/12/20 10:55:35;;;;;;;8.70;0.40;;;6.50;99.90;;;;;;5094611;28;20404;-83
2021/12/20 10:58:19;;;;;;;1.30;0.50;;;7.70;99.90;;;;;;5094379;28;20558;-83
2021/12/20 11:00:59;;;;;;;9.03;2.00;;;8.30;99.90;;;;;;5094000;28;20417;-83
2021/12/20 11:03:27;;;;;;;4.70;0.93;;;8.90;99.90;;;;;;5094460;28;21378;-83
2021/12/20 11:11:24;;;;;;;2.57;0.77;;;11.10;95.30;;;;;;5094480;28;20396;-83
2021/12/20 11:13:49;;;;;;;4.53;1.37;;;10.90;93.80;;;;;;5106270;28;20447;-83
2021/12/20 11:16:32;;;;;;;3.50;1.10;;;10.70;95.20;;;;;;5113669;28;20492;-84
2021/12/20 11:19:15;;;;;;;3.10;1.40;;;10.60;94.20;;;;;;5114529;28;20213;-83
2021/12/20 11:22:00;;;;;;;3.60;0.77;;;9.60;98.00;;;;;;5113928;28;21191;-84
2021/12/20 11:24:54;;;;;;;2.63;1.20;;;10.30;96.90;;;;;;5114568;28;20416;-83
2021/12/20 11:27:24;;;;;;;1.50;0.63;;;10.00;95.70;;;;;;5114613;28;20424;-83
2021/12/20 11:29:52;;;;;;;7.83;1.53;;;8.10;99.90;;;;;;5114231;28;20477;-83
2021/12/20 11:32:22;;;;;;;2.73;0.90;;;8.60;99.90;;;;;;5114439;28;20445;-83
2021/12/20 11:34:48;;;;;;;2.33;0.60;;;8.50;99.90;;;;;;5112326;28;20424;-84
2021/12/20 11:37:17;;;;;;;4.00;1.37;;;8.90;99.90;;;;;;5111363;28;20438;-82
2021/12/20 11:39:43;;;;;;;5.40;1.10;;;9.00;99.90;;;;;;5113825;28;20523;-82
2021/12/20 11:42:09;;;;;;;2.77;1.17;;;9.30;98.80;;;;;;5114047;28;20751;-83
2021/12/20 11:44:37;;;;;;;6.00;1.43;;;8.50;99.90;;;;;;5113644;28;20415;-84
2021/12/20 11:47:16;;;;;;;3.63;1.43;;;8.50;99.90;;;;;;5114014;28;20443;-83
2021/12/20 11:49:42;;;;;;;3.63;1.20;;;9.20;99.90;;;;;;5114066;28;20419;-84
2021/12/20 11:52:16;;;;;;;4.43;0.80;;;12.00;99.90;;;;;;5114126;28;20429;-85
2021/12/20 11:54:53;;;;;;;3.13;1.30;;;11.60;93.80;;;;;;5097917;28;20183;-86
2021/12/20 11:57:28;;;;;;;2.63;0.80;;;11.70;93.40;;;;;;5075461;28;21044;-83
2021/12/20 12:00:00;;;;;;;4.33;1.50;;;11.50;92.90;;;;;;5076688;28;20427;-84
2021/12/20 12:02:28;;;;;;;3.37;0.73;;;11.00;93.60;;;;;;5073855;28;20414;-84
2021/12/20 12:05:09;;;;;;;4.17;0.80;;;11.00;93.80;;;;;;5074457;28;20437;-85
2021/12/20 12:07:37;;;;;;;4.20;1.20;;;10.70;94.90;;;;;;5073517;28;20415;-85
2021/12/20 12:10:28;;;;;;;2.63;0.80;;;11.50;93.40;;;;;;5073268;28;20503;-86
2021/12/20 12:13:00;;;;;;;3.53;0.80;;;12.10;91.50;;;;;;5071425;28;20494;-85
2021/12/20 12:15:43;;;;;;;5.00;1.40;;;12.20;91.10;;;;;;5072592;28;20440;-86
2021/12/20 12:18:10;;;;;;;3.57;1.13;;;12.30;90.30;;;;;;5072816;28;20473;-85
2021/12/20 12:20:41;;;;;;;2.60;0.60;;;11.60;90.40;;;;;;5072916;28;20417;-86
2021/12/20 12:23:18;;;;;;;3.00;0.80;;;10.80;92.90;;;;;;5072732;28;20953;-87
2021/12/20 12:25:58;;;;;;;3.33;0.93;;;10.80;92.80;;;;;;5072855;28;20443;-84
2021/12/20 12:28:26;;;;;;;0.80;0.60;;;10.40;94.10;;;;;;5103441;28;20398;-84
2021/12/20 12:31:01;;;;;;;4.30;1.07;;;10.20;94.20;;;;;;5113507;28;20459;-84
2021/12/20 12:33:30;;;;;;;4.53;1.40;;;10.10;94.60;;;;;;5113774;28;20427;-84
2021/12/20 12:35:59;;;;;;;6.73;1.30;;;8.40;99.90;;;;;;5113445;28;20411;-83
2021/12/20 12:38:31;;;;;;;4.90;1.00;;;7.30;99.90;;;;;;5113180;28;20476;-83
2021/12/20 12:41:05;;;;;;;2.30;0.90;;;6.70;99.90;;;;;;5113566;28;21508;-83
2021/12/20 12:43:48;;;;;;;3.40;1.23;;;6.40;99.90;;;;;;5113296;28;20422;-83
2021/12/20 12:46:14;;;;;;;3.00;0.70;;;6.20;99.90;;;;;;5111715;28;20412;-83
2021/12/20 12:48:49;;;;;;;4.07;1.60;;;6.20;99.90;;;;;;5113422;28;20787;-83
2021/12/20 12:51:20;;;;;;;3.00;0.90;;;6.20;99.90;;;;;;5100591;28;20409;-83
2021/12/20 12:53:52;;;;;;;2.67;0.67;;;6.40;99.90;;;;;;5092835;28;20465;-83
2021/12/20 12:56:27;;;;;;;3.50;1.00;;;6.10;99.90;;;;;;5093008;28;20415;-83
2021/12/20 12:59:11;;;;;;;5.10;1.80;;;6.10;99.90;;;;;;5090388;28;20473;-82
2021/12/20 13:01:58;;;;;;;5.70;1.30;;;6.30;99.90;;;;;;5092543;28;20891;-82
2021/12/20 13:04:49;;;;;;;1.53;0.53;;;6.30;99.90;;;;;;5093773;28;20426;-83
2021/12/20 13:07:21;;;;;;;3.47;0.77;;;5.90;99.90;;;;;;5095460;28;20463;-83
2021/12/20 13:09:49;;;;;;;4.80;1.20;;;5.80;99.90;;;;;;5078672;28;20941;-83
2021/12/20 13:12:28;;;;;;;2.57;1.50;;;5.70;99.90;;;;;;5095685;28;20511;-83